Orsa, Belarus
Current Conditions -  °F | °C
As of 12:00 PM on Thursday 29 Jan 2015 (Local Time) from UMII Reporting Station
Broken Clouds Broken Clouds  
Wind Chill: 21°   Ceiling: 2200
Heat Index: 32°   Visibility: 4mi
Dew Point: 27°   Wind: 16mph
Humidity: 80%   Direction: 180°S
Pressure: 29.53"   Gusts: 25mph
Location:  55°N, 30.42°E
Report Text: UMII 291000Z 18007G11MPS P6000 BKN022 M00/M03 Q1000 NOSIG
Loading
Personal Weather Stations






























Interactive Weather Map New forecast layout! Learn more

10-Day Weather Forecast

Advertisements
Track Severe Weather on mobile